Flanagan, Illinois
Current Conditions -  °F | °C
As of 5:55 AM on Monday 22 Dec 2014 (Local Time) from KPNT Reporting Station
Haze Haze  
Wind Chill: 24°   Ceiling: 6000
Heat Index: 33°   Visibility: 5mi
Dew Point: 31°   Wind: 12mph
Humidity: 94%   Direction: 120°ESE
Pressure: 29.91"   Gusts: NA
Location:  40.88°N, 88.86°W
Report Text: KPNT 221155Z AUTO 12010KT 5SM BR BKN060 OVC080 01/00 A2991 RMK AO2 T00051003 10010 20005
Loading
Personal Weather Stations






























Interactive Weather Map New forecast layout! Learn more

10-Day Weather Forecast

Advertisements
Track Severe Weather on mobile